Time;durP1;ratioP1;P1;durP2;ratioP2;P2;SDS_P1;SDS_P2;PMS_P1;PMS_P2;Temp;Humidity;BMP_temperature;BMP_pressure;BME280_temperature;BME280_humidity;BME280_pressure;Samples;Min_cycle;Max_cycle;Signal;HPM_P1;HPM_P2
2023/02/06 00:01:40;;;;;;;12.35;10.05;;;;;;;;;;5045425;28;20217;-65
2023/02/06 00:04:08;;;;;;;11.93;10.10;;;;;;;;;;5034061;28;20563;-64
2023/02/06 00:06:36;;;;;;;13.63;10.80;;;;;;;;;;5048174;28;20205;-64
2023/02/06 00:09:05;;;;;;;15.68;11.32;;;;;;;;;;5054572;28;20231;-64
2023/02/06 00:11:34;;;;;;;14.05;11.52;;;;;;;;;;5053196;28;20698;-64
2023/02/06 00:14:04;;;;;;;15.10;12.20;;;;;;;;;;5053759;28;20215;-64
2023/02/06 00:16:33;;;;;;;11.63;9.90;;;;;;;;;;5054316;28;20584;-64
2023/02/06 00:19:02;;;;;;;15.82;11.90;;;;;;;;;;5039214;28;20353;-64
2023/02/06 00:21:30;;;;;;;13.20;10.98;;;;;;;;;;5034266;28;20227;-64
2023/02/06 00:23:59;;;;;;;12.75;10.88;;;;;;;;;;5034814;28;20286;-64
2023/02/06 00:26:27;;;;;;;18.05;12.35;;;;;;;;;;5034142;28;20209;-64
2023/02/06 00:28:56;;;;;;;14.02;10.85;;;;;;;;;;5034873;28;20212;-64
2023/02/06 00:31:27;;;;;;;12.27;11.02;;;;;;;;;;5033084;28;20209;-64
2023/02/06 00:33:55;;;;;;;14.52;10.95;;;;;;;;;;5034854;28;20209;-64
2023/02/06 00:36:23;;;;;;;14.90;11.07;;;;;;;;;;5034438;28;20233;-65
2023/02/06 00:38:52;;;;;;;12.40;10.18;;;;;;;;;;5034499;28;20217;-64
2023/02/06 00:41:21;;;;;;;12.43;9.70;;;;;;;;;;5034284;28;20687;-64
2023/02/06 00:43:49;;;;;;;10.60;9.50;;;;;;;;;;5045762;28;20200;-65
2023/02/06 00:46:17;;;;;;;9.65;8.23;;;;;;;;;;5052788;28;20203;-65
2023/02/06 00:48:46;;;;;;;10.93;7.80;;;;;;;;;;5042253;28;20201;-65
2023/02/06 00:51:14;;;;;;;9.27;8.32;;;;;;;;;;5053238;28;20201;-65
2023/02/06 00:53:42;;;;;;;8.65;7.70;;;;;;;;;;5024780;28;20205;-65
2023/02/06 00:56:10;;;;;;;9.05;8.18;;;;;;;;;;5034117;28;20225;-64
2023/02/06 00:58:38;;;;;;;11.82;8.38;;;;;;;;;;5034124;28;20208;-64
2023/02/06 01:01:06;;;;;;;10.88;7.55;;;;;;;;;;5032468;28;20225;-64
2023/02/06 01:03:34;;;;;;;10.02;8.40;;;;;;;;;;5031691;28;20206;-64
2023/02/06 01:06:04;;;;;;;9.60;8.23;;;;;;;;;;5046383;28;20572;-64
2023/02/06 01:08:32;;;;;;;9.73;8.30;;;;;;;;;;5053738;28;20698;-64
2023/02/06 01:11:00;;;;;;;9.57;8.52;;;;;;;;;;5052838;28;20196;-64
2023/02/06 01:13:28;;;;;;;13.07;9.02;;;;;;;;;;5051887;28;20210;-65
2023/02/06 01:15:56;;;;;;;10.48;9.10;;;;;;;;;;5053678;28;20562;-65
2023/02/06 01:18:24;;;;;;;9.57;8.25;;;;;;;;;;5053680;28;20200;-65
2023/02/06 01:20:52;;;;;;;9.85;8.20;;;;;;;;;;5052873;28;20584;-65
2023/02/06 01:23:22;;;;;;;9.10;7.72;;;;;;;;;;5053129;28;20232;-65
2023/02/06 01:25:50;;;;;;;10.63;8.82;;;;;;;;;;5053643;28;20207;-64
2023/02/06 01:28:18;;;;;;;8.88;7.97;;;;;;;;;;5053458;28;20201;-65
2023/02/06 01:30:46;;;;;;;7.97;7.18;;;;;;;;;;5053147;28;20205;-65
2023/02/06 01:33:14;;;;;;;8.73;7.82;;;;;;;;;;5052265;28;20207;-64
2023/02/06 01:35:42;;;;;;;9.07;7.53;;;;;;;;;;5052106;28;20204;-64
2023/02/06 01:38:13;;;;;;;9.05;8.15;;;;;;;;;;5053335;28;20602;-64
2023/02/06 01:40:42;;;;;;;8.65;7.70;;;;;;;;;;5053398;28;20200;-64
2023/02/06 01:43:12;;;;;;;8.75;7.85;;;;;;;;;;5039195;28;20203;-66
2023/02/06 01:45:42;;;;;;;11.15;8.80;;;;;;;;;;5052941;28;20582;-64
2023/02/06 01:48:12;;;;;;;10.18;8.70;;;;;;;;;;5053097;28;20200;-65
2023/02/06 01:50:42;;;;;;;9.45;8.38;;;;;;;;;;5049051;28;20196;-65
2023/02/06 01:53:12;;;;;;;10.95;7.72;;;;;;;;;;5033089;28;20204;-65
2023/02/06 01:55:40;;;;;;;9.57;8.55;;;;;;;;;;5037226;28;20200;-64
2023/02/06 01:58:11;;;;;;;9.05;8.15;;;;;;;;;;5051751;28;20205;-65
2023/02/06 02:00:40;;;;;;;10.32;8.48;;;;;;;;;;5052323;28;20205;-65
2023/02/06 02:03:08;;;;;;;10.77;9.13;;;;;;;;;;5051582;28;20581;-64
2023/02/06 02:05:37;;;;;;;11.23;9.30;;;;;;;;;;5049482;28;20634;-64
2023/02/06 02:08:07;;;;;;;10.40;9.38;;;;;;;;;;5052646;28;20205;-65
2023/02/06 02:10:36;;;;;;;12.68;10.40;;;;;;;;;;5052288;28;20199;-64
2023/02/06 02:13:04;;;;;;;10.45;8.48;;;;;;;;;;5052850;28;20211;-66
2023/02/06 02:15:40;;;;;;;12.40;11.10;;;;;;;;;;5051326;28;20191;-64
2023/02/06 02:18:17;;;;;;;11.68;10.45;;;;;;;;;;5052616;28;20189;-64
2023/02/06 02:20:59;;;;;;;11.70;10.40;;;;;;;;;;5052589;28;20555;-64
2023/02/06 02:23:33;;;;;;;12.10;9.32;;;;;;;;;;5050822;28;20228;-64
2023/02/06 02:26:17;;;;;;;12.07;10.77;;;;;;;;;;5052474;28;20193;-64
2023/02/06 02:29:03;;;;;;;13.93;11.23;;;;;;;;;;5052255;28;20188;-64
2023/02/06 02:31:43;;;;;;;13.65;11.75;;;;;;;;;;5052861;28;20249;-64
2023/02/06 02:34:28;;;;;;;13.98;12.10;;;;;;;;;;5052300;28;20185;-65
2023/02/06 02:37:03;;;;;;;15.30;11.95;;;;;;;;;;5021157;28;20230;-65
2023/02/06 02:39:37;;;;;;;15.50;12.77;;;;;;;;;;5050470;28;20209;-64
2023/02/06 02:42:11;;;;;;;14.65;11.95;;;;;;;;;;5052145;28;20594;-65
2023/02/06 02:44:44;;;;;;;17.40;12.20;;;;;;;;;;5043811;28;20195;-64
2023/02/06 02:47:14;;;;;;;16.50;12.60;;;;;;;;;;5032621;28;20200;-64
2023/02/06 02:49:44;;;;;;;15.57;12.93;;;;;;;;;;5032031;28;20255;-65
2023/02/06 02:52:14;;;;;;;17.73;13.02;;;;;;;;;;5031281;28;20678;-64
2023/02/06 02:54:42;;;;;;;18.10;13.15;;;;;;;;;;5031909;28;20201;-64
2023/02/06 02:57:13;;;;;;;15.93;12.85;;;;;;;;;;5043265;28;20554;-64
2023/02/06 02:59:44;;;;;;;17.65;13.23;;;;;;;;;;5048971;28;20557;-65
2023/02/06 03:02:13;;;;;;;15.07;11.80;;;;;;;;;;5048829;28;20217;-64
2023/02/06 03:04:43;;;;;;;17.40;12.88;;;;;;;;;;5041479;28;20284;-64
2023/02/06 03:07:17;;;;;;;15.60;12.40;;;;;;;;;;5033915;28;20197;-64
2023/02/06 03:09:49;;;;;;;15.60;13.07;;;;;;;;;;5050114;28;20193;-64
2023/02/06 03:12:22;;;;;;;15.25;12.95;;;;;;;;;;5045306;28;20182;-64
2023/02/06 03:14:53;;;;;;;16.75;13.20;;;;;;;;;;5037255;28;20628;-64
2023/02/06 03:17:27;;;;;;;16.85;13.77;;;;;;;;;;5033947;28;20193;-64
2023/02/06 03:19:57;;;;;;;17.15;13.13;;;;;;;;;;5051280;28;20196;-64
2023/02/06 03:22:28;;;;;;;20.42;15.60;;;;;;;;;;5043105;28;20225;-64
2023/02/06 03:24:57;;;;;;;16.52;13.38;;;;;;;;;;5048072;28;20561;-64
2023/02/06 03:27:27;;;;;;;20.90;15.25;;;;;;;;;;5046531;28;20547;-64
2023/02/06 03:29:56;;;;;;;16.45;13.45;;;;;;;;;;5050203;28;20201;-65
2023/02/06 03:32:26;;;;;;;17.65;12.57;;;;;;;;;;5031753;28;20204;-64
2023/02/06 03:34:56;;;;;;;18.33;14.77;;;;;;;;;;5032100;28;20201;-64
2023/02/06 03:37:25;;;;;;;19.15;14.63;;;;;;;;;;5031581;28;20236;-64
2023/02/06 03:39:54;;;;;;;18.90;14.02;;;;;;;;;;5031977;28;20201;-64
2023/02/06 03:42:23;;;;;;;20.15;13.70;;;;;;;;;;5031141;28;20709;-64
2023/02/06 03:44:55;;;;;;;18.77;13.95;;;;;;;;;;5052678;28;20204;-64
2023/02/06 03:47:23;;;;;;;19.15;14.07;;;;;;;;;;5051129;28;20181;-64
2023/02/06 03:49:52;;;;;;;18.17;13.55;;;;;;;;;;5038115;28;20205;-64
2023/02/06 03:52:21;;;;;;;19.77;14.30;;;;;;;;;;5038802;28;20189;-64
2023/02/06 03:54:51;;;;;;;17.55;14.18;;;;;;;;;;5055390;28;20200;-64
2023/02/06 03:57:22;;;;;;;19.83;13.70;;;;;;;;;;5054682;28;20204;-64
2023/02/06 03:59:50;;;;;;;18.15;14.57;;;;;;;;;;5039848;28;20205;-64
2023/02/06 04:02:18;;;;;;;16.98;13.00;;;;;;;;;;5038201;28;20315;-64
2023/02/06 04:04:46;;;;;;;18.13;14.23;;;;;;;;;;5045775;28;20547;-64
2023/02/06 04:07:17;;;;;;;17.33;14.93;;;;;;;;;;5051767;28;20200;-64
2023/02/06 04:09:45;;;;;;;17.80;13.55;;;;;;;;;;5055539;28;20226;-64
2023/02/06 04:12:14;;;;;;;19.35;14.32;;;;;;;;;;5053655;28;20201;-64
2023/02/06 04:14:43;;;;;;;17.70;13.10;;;;;;;;;;5054975;28;20207;-64
2023/02/06 04:17:11;;;;;;;21.83;15.90;;;;;;;;;;5052091;28;20200;-64
2023/02/06 04:19:40;;;;;;;21.38;16.40;;;;;;;;;;5055099;28;20199;-64
2023/02/06 04:22:09;;;;;;;20.15;15.38;;;;;;;;;;5053617;28;20685;-64
2023/02/06 04:24:39;;;;;;;20.77;15.85;;;;;;;;;;5054024;28;20209;-64
2023/02/06 04:27:07;;;;;;;24.80;16.25;;;;;;;;;;5048532;28;20204;-64
2023/02/06 04:29:35;;;;;;;20.70;15.18;;;;;;;;;;5048031;28;20564;-64
2023/02/06 04:32:04;;;;;;;25.70;16.40;;;;;;;;;;5053057;28;20567;-64
2023/02/06 04:34:32;;;;;;;19.48;15.32;;;;;;;;;;5046065;28;20197;-64
2023/02/06 04:37:00;;;;;;;24.20;16.88;;;;;;;;;;5033582;28;20601;-64
2023/02/06 04:39:28;;;;;;;22.05;16.92;;;;;;;;;;5047649;28;20209;-64
2023/02/06 04:41:57;;;;;;;28.52;19.95;;;;;;;;;;5053911;28;20205;-62
2023/02/06 04:44:25;;;;;;;24.48;17.95;;;;;;;;;;5054100;28;20236;-63
2023/02/06 04:46:53;;;;;;;23.92;19.00;;;;;;;;;;5053491;28;20232;-63
2023/02/06 04:49:22;;;;;;;18.85;14.45;;;;;;;;;;5054405;28;20216;-63
2023/02/06 04:51:50;;;;;;;18.52;14.50;;;;;;;;;;5039269;28;20227;-63
2023/02/06 04:54:18;;;;;;;16.20;13.93;;;;;;;;;;5034146;28;20216;-63
2023/02/06 04:56:46;;;;;;;19.38;14.52;;;;;;;;;;5033396;28;20209;-63
2023/02/06 04:59:15;;;;;;;20.13;15.27;;;;;;;;;;5033908;28;20209;-67
2023/02/06 05:01:43;;;;;;;21.60;14.10;;;;;;;;;;5032635;28;20216;-63
2023/02/06 05:04:11;;;;;;;18.33;14.25;;;;;;;;;;5032918;28;20726;-63
2023/02/06 05:06:43;;;;;;;23.60;16.10;;;;;;;;;;5033576;28;20193;-63
2023/02/06 05:09:12;;;;;;;22.20;15.38;;;;;;;;;;5034110;28;20205;-63
2023/02/06 05:11:40;;;;;;;19.50;15.02;;;;;;;;;;5033511;28;20225;-63
2023/02/06 05:14:08;;;;;;;19.17;15.63;;;;;;;;;;5033926;28;20201;-65
2023/02/06 05:16:36;;;;;;;20.30;15.40;;;;;;;;;;5032462;28;20208;-63
2023/02/06 05:19:04;;;;;;;20.38;14.85;;;;;;;;;;5033484;28;20205;-63
2023/02/06 05:21:34;;;;;;;19.75;14.88;;;;;;;;;;5033754;28;20209;-63
2023/02/06 05:24:06;;;;;;;24.05;16.25;;;;;;;;;;5033748;28;20229;-64
2023/02/06 05:26:34;;;;;;;24.42;16.15;;;;;;;;;;5033319;28;20211;-63
2023/02/06 05:29:03;;;;;;;20.10;14.80;;;;;;;;;;5037243;28;20204;-63
2023/02/06 05:31:31;;;;;;;20.77;15.23;;;;;;;;;;5046212;28;20204;-64
2023/02/06 05:33:59;;;;;;;16.67;13.38;;;;;;;;;;5053083;28;20659;-63
2023/02/06 05:36:28;;;;;;;17.13;12.77;;;;;;;;;;5032858;28;20233;-63
2023/02/06 05:38:57;;;;;;;16.13;13.20;;;;;;;;;;5033054;28;20194;-63
2023/02/06 05:41:27;;;;;;;17.63;12.75;;;;;;;;;;5033298;28;20258;-64
2023/02/06 05:43:55;;;;;;;18.60;14.18;;;;;;;;;;5033417;28;20217;-64
2023/02/06 05:46:23;;;;;;;18.63;14.27;;;;;;;;;;5034969;28;20250;-64
2023/02/06 05:48:52;;;;;;;18.40;13.50;;;;;;;;;;5048924;28;20568;-63
2023/02/06 05:51:20;;;;;;;17.25;14.00;;;;;;;;;;5043033;28;20205;-63
2023/02/06 05:53:48;;;;;;;18.00;13.27;;;;;;;;;;5032608;28;20262;-63
2023/02/06 05:56:16;;;;;;;16.50;13.35;;;;;;;;;;5044306;28;20656;-63
2023/02/06 05:58:46;;;;;;;23.35;14.65;;;;;;;;;;5052640;28;20213;-63
2023/02/06 06:01:14;;;;;;;22.30;16.30;;;;;;;;;;5052451;28;20220;-65
2023/02/06 06:03:42;;;;;;;25.85;17.50;;;;;;;;;;5038455;28;20271;-64
2023/02/06 06:06:11;;;;;;;20.60;15.73;;;;;;;;;;5032732;28;20213;-62
2023/02/06 06:08:42;;;;;;;21.75;14.52;;;;;;;;;;5044281;28;20197;-63
2023/02/06 06:11:10;;;;;;;19.25;14.05;;;;;;;;;;5039786;28;20197;-63
2023/02/06 06:13:38;;;;;;;17.40;13.45;;;;;;;;;;5040016;28;20201;-63
2023/02/06 06:16:08;;;;;;;21.13;16.10;;;;;;;;;;5050046;28;20211;-64
2023/02/06 06:18:36;;;;;;;20.35;14.38;;;;;;;;;;5038974;28;20205;-63
2023/02/06 06:21:04;;;;;;;18.45;14.05;;;;;;;;;;5032861;28;20655;-63
2023/02/06 06:23:32;;;;;;;18.35;13.68;;;;;;;;;;5043049;28;20659;-63
2023/02/06 06:26:00;;;;;;;18.25;13.07;;;;;;;;;;5042336;28;20201;-63
2023/02/06 06:28:28;;;;;;;17.58;14.07;;;;;;;;;;5041891;28;20567;-63
2023/02/06 06:31:01;;;;;;;23.05;14.38;;;;;;;;;;5032519;28;20209;-64
2023/02/06 06:33:30;;;;;;;18.55;13.98;;;;;;;;;;5033664;28;20201;-66
2023/02/06 06:35:58;;;;;;;19.85;14.02;;;;;;;;;;5032155;28;20244;-65
2023/02/06 06:38:26;;;;;;;17.17;13.40;;;;;;;;;;5047021;28;20196;-64
2023/02/06 06:40:54;;;;;;;18.65;13.95;;;;;;;;;;5041043;28;20211;-64
2023/02/06 06:43:22;;;;;;;22.67;13.50;;;;;;;;;;5051069;28;20542;-65
2023/02/06 06:45:50;;;;;;;17.25;13.77;;;;;;;;;;5044183;28;20573;-65
2023/02/06 06:48:18;;;;;;;22.83;15.60;;;;;;;;;;5031843;28;20682;-63
2023/02/06 06:50:49;;;;;;;18.35;14.20;;;;;;;;;;5037245;28;20204;-64
2023/02/06 06:53:17;;;;;;;20.27;14.20;;;;;;;;;;5053643;28;20193;-64
2023/02/06 06:55:45;;;;;;;20.60;15.43;;;;;;;;;;5051284;28;20197;-64
2023/02/06 06:58:13;;;;;;;30.13;16.48;;;;;;;;;;5051695;28;20200;-64
2023/02/06 07:00:41;;;;;;;28.05;15.32;;;;;;;;;;5051772;28;20196;-64
2023/02/06 07:03:10;;;;;;;20.70;14.40;;;;;;;;;;5049738;28;20200;-63
2023/02/06 07:05:38;;;;;;;19.60;14.25;;;;;;;;;;5048280;28;20225;-62
2023/02/06 07:08:08;;;;;;;18.17;13.57;;;;;;;;;;5045753;28;20216;-63
2023/02/06 07:10:36;;;;;;;18.38;15.25;;;;;;;;;;5051057;28;20197;-63
2023/02/06 07:13:04;;;;;;;20.90;15.02;;;;;;;;;;5050364;28;20204;-63
2023/02/06 07:15:32;;;;;;;21.73;14.93;;;;;;;;;;5051954;28;20205;-63
2023/02/06 07:18:00;;;;;;;18.63;13.82;;;;;;;;;;5052127;28;20204;-63
2023/02/06 07:20:28;;;;;;;19.27;14.35;;;;;;;;;;5054731;28;20566;-63
2023/02/06 07:22:56;;;;;;;18.67;13.73;;;;;;;;;;5055536;28;20235;-63
2023/02/06 07:25:25;;;;;;;19.27;14.00;;;;;;;;;;5054533;28;20233;-63
2023/02/06 07:27:53;;;;;;;18.15;14.15;;;;;;;;;;5055624;28;20200;-63
2023/02/06 07:30:22;;;;;;;20.90;14.77;;;;;;;;;;5055209;28;20675;-63
2023/02/06 07:32:50;;;;;;;21.77;13.90;;;;;;;;;;5055525;28;20205;-63
2023/02/06 07:35:18;;;;;;;17.40;12.48;;;;;;;;;;5055314;28;20652;-63
2023/02/06 07:37:48;;;;;;;20.75;14.63;;;;;;;;;;5055431;28;20236;-63
2023/02/06 07:40:16;;;;;;;18.65;13.73;;;;;;;;;;5053942;28;20197;-63
2023/02/06 07:42:46;;;;;;;17.83;13.93;;;;;;;;;;5055657;28;20215;-63
2023/02/06 07:45:25;;;;;;;20.52;12.55;;;;;;;;;;5053378;28;20209;-63
2023/02/06 07:47:54;;;;;;;23.38;15.63;;;;;;;;;;5051407;28;20204;-63
2023/02/06 07:50:22;;;;;;;23.42;15.40;;;;;;;;;;5054937;28;20548;-62
2023/02/06 07:52:50;;;;;;;20.00;13.73;;;;;;;;;;5055001;28;20204;-63
2023/02/06 07:55:18;;;;;;;14.90;12.70;;;;;;;;;;5052338;28;20223;-63
2023/02/06 07:57:48;;;;;;;19.15;14.27;;;;;;;;;;5043918;28;20614;-63
2023/02/06 08:00:16;;;;;;;16.40;12.85;;;;;;;;;;5054427;28;20697;-63
2023/02/06 08:02:45;;;;;;;18.42;14.77;;;;;;;;;;5054623;28;20208;-63
2023/02/06 08:05:13;;;;;;;18.02;12.98;;;;;;;;;;5051119;28;20702;-63
2023/02/06 08:07:41;;;;;;;16.35;12.40;;;;;;;;;;5040475;28;20201;-63
2023/02/06 08:10:10;;;;;;;19.88;13.65;;;;;;;;;;5036423;28;20254;-64
2023/02/06 08:12:38;;;;;;;18.83;14.02;;;;;;;;;;5036863;28;20215;-65
2023/02/06 08:15:08;;;;;;;18.25;14.15;;;;;;;;;;5045723;28;20602;-67
2023/02/06 08:17:36;;;;;;;16.88;13.48;;;;;;;;;;5043572;28;20649;-66
2023/02/06 08:20:05;;;;;;;17.85;12.48;;;;;;;;;;5054893;28;20224;-66
2023/02/06 08:22:33;;;;;;;16.75;12.52;;;;;;;;;;5041570;28;20229;-66
2023/02/06 08:25:01;;;;;;;16.30;11.98;;;;;;;;;;5051863;28;20220;-66
2023/02/06 08:27:29;;;;;;;16.52;11.98;;;;;;;;;;5042543;28;20583;-66
2023/02/06 08:29:58;;;;;;;17.67;12.52;;;;;;;;;;5043404;28;20207;-66
2023/02/06 08:32:32;;;;;;;17.77;12.13;;;;;;;;;;5035628;28;20198;-66
2023/02/06 08:35:00;;;;;;;15.75;12.18;;;;;;;;;;5047103;28;20203;-66
2023/02/06 08:37:28;;;;;;;15.70;11.73;;;;;;;;;;5044338;28;20228;-66
2023/02/06 08:39:56;;;;;;;18.50;12.43;;;;;;;;;;5043727;28;20543;-66
2023/02/06 08:42:24;;;;;;;18.20;11.38;;;;;;;;;;5051724;28;20192;-66
2023/02/06 08:44:53;;;;;;;20.27;13.27;;;;;;;;;;5051586;28;20695;-66
2023/02/06 08:47:21;;;;;;;14.60;11.25;;;;;;;;;;5044484;28;20200;-66
2023/02/06 08:49:51;;;;;;;15.07;11.00;;;;;;;;;;5052521;28;20655;-65
2023/02/06 08:52:19;;;;;;;22.00;16.13;;;;;;;;;;5044588;28;20192;-65
2023/02/06 08:54:47;;;;;;;17.58;12.52;;;;;;;;;;5037307;28;20201;-65
2023/02/06 08:57:15;;;;;;;15.68;10.32;;;;;;;;;;5041769;28;20197;-65
2023/02/06 08:59:43;;;;;;;16.20;11.10;;;;;;;;;;5044160;28;20270;-65
2023/02/06 09:02:11;;;;;;;12.15;10.27;;;;;;;;;;5043212;28;20209;-65
2023/02/06 09:04:41;;;;;;;15.07;10.77;;;;;;;;;;5054052;28;20220;-65
2023/02/06 09:07:10;;;;;;;18.65;11.13;;;;;;;;;;5049539;28;20561;-66
2023/02/06 09:09:38;;;;;;;12.70;10.60;;;;;;;;;;5053391;28;20208;-66
2023/02/06 09:12:09;;;;;;;13.85;11.40;;;;;;;;;;5044905;28;20259;-65
2023/02/06 09:14:37;;;;;;;14.57;10.60;;;;;;;;;;5046827;28;20204;-65
2023/02/06 09:17:06;;;;;;;19.77;12.45;;;;;;;;;;5046289;28;20660;-66
2023/02/06 09:19:33;;;;;;;17.25;10.43;;;;;;;;;;5050048;28;20203;-67
2023/02/06 09:22:02;;;;;;;13.02;10.75;;;;;;;;;;5035608;28;20275;-67
2023/02/06 09:24:32;;;;;;;14.52;10.98;;;;;;;;;;5050614;28;20250;-67
2023/02/06 09:27:00;;;;;;;16.08;12.15;;;;;;;;;;5037031;28;20197;-66
2023/02/06 09:29:30;;;;;;;25.13;11.23;;;;;;;;;;5035536;28;20290;-66
2023/02/06 09:32:01;;;;;;;15.27;10.63;;;;;;;;;;5041546;28;20189;-66
2023/02/06 09:34:29;;;;;;;23.33;16.63;;;;;;;;;;5049442;28;20204;-67
2023/02/06 09:36:57;;;;;;;16.63;10.23;;;;;;;;;;5051777;28;20224;-67
2023/02/06 09:39:26;;;;;;;16.38;11.30;;;;;;;;;;5043195;28;20198;-66
2023/02/06 09:41:57;;;;;;;15.43;11.82;;;;;;;;;;5044155;28;20306;-66
2023/02/06 09:44:29;;;;;;;15.40;12.52;;;;;;;;;;5052459;28;20532;-66
2023/02/06 09:46:59;;;;;;;21.23;11.20;;;;;;;;;;5034186;28;20194;-65
2023/02/06 09:49:30;;;;;;;12.32;10.70;;;;;;;;;;5032620;28;20581;-66
2023/02/06 09:52:06;;;;;;;15.52;11.10;;;;;;;;;;5038992;28;20203;-66
2023/02/06 09:54:39;;;;;;;16.73;11.55;;;;;;;;;;5033198;28;20280;-66
2023/02/06 09:57:13;;;;;;;19.92;10.80;;;;;;;;;;5034380;28;20748;-66
2023/02/06 09:59:43;;;;;;;15.02;10.40;;;;;;;;;;5045630;28;20205;-66
2023/02/06 10:02:22;;;;;;;20.75;12.88;;;;;;;;;;5039492;28;20473;-66
2023/02/06 10:04:56;;;;;;;13.65;10.77;;;;;;;;;;5036472;28;20201;-66
2023/02/06 10:07:31;;;;;;;16.95;12.57;;;;;;;;;;5038717;28;20230;-66
2023/02/06 10:10:02;;;;;;;17.50;11.88;;;;;;;;;;5043655;28;20200;-67
2023/02/06 10:12:34;;;;;;;14.05;11.48;;;;;;;;;;5032067;28;20558;-66
2023/02/06 10:15:05;;;;;;;18.17;12.95;;;;;;;;;;5035499;28;20528;-65
2023/02/06 10:17:36;;;;;;;16.33;12.13;;;;;;;;;;5045664;28;20201;-65
2023/02/06 10:20:12;;;;;;;16.67;11.85;;;;;;;;;;5033200;28;20196;-65
2023/02/06 10:22:44;;;;;;;31.63;28.48;;;;;;;;;;5034161;28;20761;-65
2023/02/06 10:25:17;;;;;;;11.88;10.65;;;;;;;;;;5036412;28;20216;-66
2023/02/06 10:27:49;;;;;;;18.10;15.90;;;;;;;;;;5042218;28;20189;-65
2023/02/06 10:30:19;;;;;;;14.65;11.90;;;;;;;;;;5039475;28;20530;-66
2023/02/06 10:32:51;;;;;;;12.30;9.85;;;;;;;;;;5047669;28;20570;-65
2023/02/06 10:35:25;;;;;;;13.60;9.40;;;;;;;;;;5035661;28;20571;-65
2023/02/06 10:38:11;;;;;;;13.00;8.55;;;;;;;;;;5031444;28;20267;-65
2023/02/06 10:40:41;;;;;;;11.40;6.80;;;;;;;;;;5002701;28;20223;-65
2023/02/06 10:43:17;;;;;;;7.03;6.32;;;;;;;;;;5046384;28;20197;-65
2023/02/06 10:45:49;;;;;;;5.25;4.75;;;;;;;;;;5038103;28;20216;-65
2023/02/06 10:48:22;;;;;;;7.10;5.60;;;;;;;;;;5051567;28;20204;-64
2023/02/06 10:50:51;;;;;;;8.05;6.68;;;;;;;;;;5044157;28;20184;-66
2023/02/06 10:53:21;;;;;;;10.10;7.75;;;;;;;;;;5048690;28;20250;-65
2023/02/06 10:55:54;;;;;;;7.20;6.13;;;;;;;;;;5043133;28;20200;-65
2023/02/06 10:58:25;;;;;;;11.07;5.90;;;;;;;;;;5048220;28;20196;-65
2023/02/06 11:00:54;;;;;;;11.48;6.15;;;;;;;;;;5048844;28;20185;-65
2023/02/06 11:03:24;;;;;;;6.05;5.45;;;;;;;;;;5040302;28;20204;-64
2023/02/06 11:05:52;;;;;;;8.30;5.90;;;;;;;;;;5055681;28;20216;-65
2023/02/06 11:08:22;;;;;;;8.98;7.40;;;;;;;;;;5051438;28;20663;-65
2023/02/06 11:10:50;;;;;;;7.88;6.45;;;;;;;;;;5044108;28;20209;-66
2023/02/06 11:13:23;;;;;;;6.20;5.60;;;;;;;;;;5047588;28;20210;-64
2023/02/06 11:15:56;;;;;;;7.55;5.38;;;;;;;;;;5053544;28;20188;-64
2023/02/06 11:18:26;;;;;;;9.52;5.70;;;;;;;;;;5048688;28;20231;-65
2023/02/06 11:20:54;;;;;;;8.07;6.25;;;;;;;;;;5047786;28;20205;-64
2023/02/06 11:23:24;;;;;;;8.65;6.90;;;;;;;;;;5055929;28;20216;-65
2023/02/06 11:25:57;;;;;;;7.70;6.10;;;;;;;;;;5040833;28;20217;-65
2023/02/06 11:28:25;;;;;;;5.93;5.18;;;;;;;;;;5047874;28;20212;-65
2023/02/06 11:30:58;;;;;;;6.47;5.82;;;;;;;;;;5055788;28;20671;-65
2023/02/06 11:33:29;;;;;;;11.35;5.07;;;;;;;;;;5049574;28;20211;-64
2023/02/06 11:35:58;;;;;;;6.93;5.40;;;;;;;;;;5054629;28;20973;-65
2023/02/06 11:38:28;;;;;;;6.53;5.30;;;;;;;;;;5053496;28;20659;-65
2023/02/06 11:41:00;;;;;;;6.25;5.63;;;;;;;;;;5055788;28;20212;-65
2023/02/06 11:43:30;;;;;;;8.70;5.45;;;;;;;;;;5053700;28;20208;-64
2023/02/06 11:46:14;;;;;;;7.30;6.30;;;;;;;;;;5051985;28;20584;-64
2023/02/06 11:48:43;;;;;;;13.30;7.78;;;;;;;;;;5052430;28;20200;-63
2023/02/06 11:51:12;;;;;;;10.70;9.07;;;;;;;;;;5053841;28;20212;-63
2023/02/06 11:53:54;;;;;;;10.73;8.93;;;;;;;;;;5054585;28;20208;-63
2023/02/06 11:56:22;;;;;;;12.68;9.77;;;;;;;;;;5053453;28;20189;-63
2023/02/06 11:59:01;;;;;;;12.13;9.50;;;;;;;;;;5038920;28;20279;-63
2023/02/06 12:01:37;;;;;;;12.80;8.85;;;;;;;;;;5041244;28;20192;-63
2023/02/06 12:04:06;;;;;;;11.35;9.13;;;;;;;;;;5033250;28;20246;-63
2023/02/06 12:06:36;;;;;;;16.67;11.55;;;;;;;;;;5034346;28;20561;-63
2023/02/06 12:09:05;;;;;;;11.85;8.85;;;;;;;;;;5036915;28;20238;-63
2023/02/06 12:11:35;;;;;;;12.32;8.57;;;;;;;;;;5041433;28;20242;-63
2023/02/06 12:14:06;;;;;;;15.23;9.73;;;;;;;;;;5041272;28;20189;-63
2023/02/06 12:16:38;;;;;;;20.42;9.52;;;;;;;;;;5034938;28;20188;-63
2023/02/06 12:19:10;;;;;;;13.35;7.57;;;;;;;;;;5042791;28;20426;-64
2023/02/06 12:21:41;;;;;;;8.45;6.75;;;;;;;;;;5042535;28;20205;-63
2023/02/06 12:24:23;;;;;;;7.72;6.53;;;;;;;;;;5035966;28;20225;-64
2023/02/06 12:26:51;;;;;;;8.15;7.00;;;;;;;;;;5040510;28;20216;-64
2023/02/06 12:29:21;;;;;;;7.35;6.10;;;;;;;;;;5044679;28;20212;-64
2023/02/06 12:31:53;;;;;;;13.18;6.65;;;;;;;;;;5046044;28;20209;-65
2023/02/06 12:34:23;;;;;;;8.25;6.35;;;;;;;;;;5042931;28;20201;-64
2023/02/06 12:36:59;;;;;;;7.18;6.10;;;;;;;;;;5047451;28;20785;-65
2023/02/06 12:39:30;;;;;;;10.27;6.43;;;;;;;;;;5044700;28;20185;-65
2023/02/06 12:42:07;;;;;;;9.27;6.95;;;;;;;;;;5043988;28;20208;-66
2023/02/06 12:44:37;;;;;;;7.35;6.65;;;;;;;;;;5049181;28;20188;-66
2023/02/06 12:47:13;;;;;;;7.97;7.18;;;;;;;;;;5040194;28;20221;-66
2023/02/06 12:49:46;;;;;;;8.55;6.68;;;;;;;;;;5051383;28;20209;-66
2023/02/06 12:52:17;;;;;;;11.38;7.07;;;;;;;;;;5036471;28;20194;-66
2023/02/06 12:54:48;;;;;;;7.97;7.22;;;;;;;;;;5038013;28;20520;-65
2023/02/06 12:57:18;;;;;;;6.60;5.55;;;;;;;;;;5043974;28;20225;-66
2023/02/06 13:00:05;;;;;;;9.98;6.93;;;;;;;;;;5054910;28;20200;-66
2023/02/06 13:02:48;;;;;;;5.22;4.82;;;;;;;;;;5038237;28;20188;-65
2023/02/06 13:05:21;;;;;;;6.82;5.82;;;;;;;;;;5049894;28;20568;-65
2023/02/06 13:07:50;;;;;;;5.45;4.95;;;;;;;;;;5048578;28;20219;-66
2023/02/06 13:10:19;;;;;;;5.30;4.88;;;;;;;;;;5040653;28;20201;-66
2023/02/06 13:12:53;;;;;;;5.22;4.72;;;;;;;;;;5037760;28;20209;-65
2023/02/06 13:15:22;;;;;;;10.00;5.40;;;;;;;;;;5052740;28;20199;-66
2023/02/06 13:17:50;;;;;;;5.70;5.10;;;;;;;;;;5045552;28;20675;-66
2023/02/06 13:20:20;;;;;;;11.10;5.45;;;;;;;;;;5043419;28;20200;-66
2023/02/06 13:22:49;;;;;;;6.43;5.93;;;;;;;;;;5046897;28;20236;-66
2023/02/06 13:25:51;;;;;;;6.88;6.40;;;;;;;;;;5035629;28;20220;-66
2023/02/06 13:28:38;;;;;;;6.43;5.93;;;;;;;;;;5050554;28;20421;-66
2023/02/06 13:31:06;;;;;;;6.88;6.45;;;;;;;;;;5052233;28;20193;-66
2023/02/06 13:33:40;;;;;;;7.15;6.70;;;;;;;;;;5050496;28;20207;-66
2023/02/06 13:36:18;;;;;;;7.68;7.07;;;;;;;;;;5033360;28;20320;-66
2023/02/06 13:38:46;;;;;;;7.95;7.18;;;;;;;;;;5044342;28;20725;-65
2023/02/06 13:41:18;;;;;;;6.95;6.40;;;;;;;;;;5045909;28;20204;-66
2023/02/06 13:43:48;;;;;;;21.50;8.18;;;;;;;;;;5036315;28;20710;-65
2023/02/06 13:46:18;;;;;;;6.70;6.10;;;;;;;;;;5035712;28;20215;-65
2023/02/06 13:49:01;;;;;;;6.30;5.80;;;;;;;;;;5042327;28;20640;-65
2023/02/06 13:51:48;;;;;;;8.32;7.53;;;;;;;;;;5054711;28;20208;-66
2023/02/06 13:54:23;;;;;;;6.78;6.18;;;;;;;;;;5054705;28;20193;-65
2023/02/06 13:56:59;;;;;;;6.40;5.90;;;;;;;;;;5054016;28;20208;-66
2023/02/06 13:59:29;;;;;;;6.60;6.10;;;;;;;;;;5054727;28;20551;-65
2023/02/06 14:02:04;;;;;;;5.82;5.43;;;;;;;;;;5052522;28;20185;-65
2023/02/06 14:04:33;;;;;;;7.63;6.85;;;;;;;;;;5040764;28;20678;-65
2023/02/06 14:07:22;;;;;;;6.55;5.95;;;;;;;;;;5039332;28;20213;-65
2023/02/06 14:12:55;;;;;;;6.82;5.82;;;;;;;;;;5044044;28;20192;-68
2023/02/06 14:15:28;;;;;;;13.15;6.32;;;;;;;;;;5047938;28;20242;-66
2023/02/06 14:18:02;;;;;;;10.27;6.35;;;;;;;;;;5038737;28;20538;-67
2023/02/06 14:20:35;;;;;;;6.72;6.03;;;;;;;;;;5033981;28;20201;-67
2023/02/06 14:23:07;;;;;;;6.25;5.55;;;;;;;;;;5032219;28;20603;-68
2023/02/06 14:25:41;;;;;;;5.65;5.05;;;;;;;;;;5042950;28;20201;-68
2023/02/06 14:28:14;;;;;;;5.57;5.07;;;;;;;;;;5051061;28;20230;-67
2023/02/06 14:30:46;;;;;;;6.57;5.97;;;;;;;;;;5055726;28;20189;-66
2023/02/06 14:33:25;;;;;;;6.72;5.60;;;;;;;;;;5053836;28;20265;-66
2023/02/06 14:36:02;;;;;;;6.93;6.32;;;;;;;;;;5045705;28;20196;-67
2023/02/06 14:38:42;;;;;;;7.63;5.63;;;;;;;;;;5044217;28;20201;-68
2023/02/06 14:41:12;;;;;;;6.00;5.50;;;;;;;;;;5040847;28;20215;-67
2023/02/06 14:43:43;;;;;;;10.32;5.13;;;;;;;;;;5042145;28;20274;-66
2023/02/06 14:46:14;;;;;;;5.65;5.07;;;;;;;;;;5041234;28;20207;-67
2023/02/06 14:48:46;;;;;;;8.35;6.10;;;;;;;;;;5045166;28;20221;-67